Time;durP1;ratioP1;P1;durP2;ratioP2;P2;SDS_P1;SDS_P2;PMS_P1;PMS_P2;Temp;Humidity;BMP_temperature;BMP_pressure;BME280_temperature;BME280_humidity;BME280_pressure;Samples;Min_cycle;Max_cycle;Signal;HPM_P1;HPM_P2
2023/04/26 00:01:57;;;;;;;3.25;2.08;;;21.30;31.10;;;;;;5051143;28;20107;-50
2023/04/26 00:04:24;;;;;;;3.15;1.70;;;21.30;31.10;;;;;;5051438;28;20029;-52
2023/04/26 00:06:49;;;;;;;4.15;1.90;;;21.30;31.10;;;;;;5050392;28;20036;-54
2023/04/26 00:09:17;;;;;;;3.83;1.88;;;21.30;31.10;;;;;;5062804;28;20057;-52
2023/04/26 00:11:43;;;;;;;3.60;1.67;;;21.30;31.10;;;;;;5050915;28;20028;-49
2023/04/26 00:14:10;;;;;;;3.72;1.83;;;21.30;31.10;;;;;;5049920;28;20425;-53
2023/04/26 00:16:36;;;;;;;4.65;1.73;;;21.30;31.10;;;;;;5051101;28;20108;-51
2023/04/26 00:19:03;;;;;;;5.13;1.90;;;21.30;31.10;;;;;;5054833;28;20108;-50
2023/04/26 00:21:29;;;;;;;4.38;1.73;;;21.20;31.10;;;;;;5031234;28;20038;-51
2023/04/26 00:23:54;;;;;;;2.38;1.23;;;21.30;31.10;;;;;;5038658;28;20096;-50
2023/04/26 00:26:21;;;;;;;3.15;1.80;;;21.20;31.10;;;;;;5050908;28;20201;-51
2023/04/26 00:28:47;;;;;;;3.65;1.48;;;21.20;31.00;;;;;;5050410;28;20078;-51
2023/04/26 00:31:14;;;;;;;2.53;1.27;;;21.20;31.10;;;;;;5050705;28;20078;-53
2023/04/26 00:33:40;;;;;;;3.00;1.60;;;21.20;31.00;;;;;;5068563;28;20116;-52
2023/04/26 00:36:06;;;;;;;4.05;1.48;;;21.20;31.10;;;;;;5059775;28;20129;-51
2023/04/26 00:38:31;;;;;;;3.90;1.60;;;21.20;31.10;;;;;;5043336;28;20397;-50
2023/04/26 00:40:58;;;;;;;3.40;1.50;;;21.20;31.10;;;;;;5041244;28;20427;-52
2023/04/26 00:43:24;;;;;;;3.20;1.50;;;21.20;31.10;;;;;;5059162;28;20020;-51
2023/04/26 00:45:51;;;;;;;3.50;1.50;;;21.20;31.10;;;;;;5048921;28;20065;-50
2023/04/26 00:48:17;;;;;;;4.30;1.42;;;21.20;31.10;;;;;;5047073;28;20329;-49
2023/04/26 00:50:43;;;;;;;2.30;1.20;;;21.20;31.10;;;;;;5044473;28;20465;-52
2023/04/26 00:53:09;;;;;;;3.80;1.50;;;21.20;31.10;;;;;;5049620;28;20110;-51
2023/04/26 00:55:35;;;;;;;2.63;1.52;;;21.20;31.10;;;;;;5050659;28;20029;-47
2023/04/26 00:58:02;;;;;;;2.83;1.67;;;21.20;31.10;;;;;;5048642;28;20117;-51
2023/04/26 01:00:28;;;;;;;2.67;1.23;;;21.10;31.10;;;;;;5050715;28;20428;-53
2023/04/26 01:02:54;;;;;;;3.58;1.55;;;21.10;31.10;;;;;;5039200;28;20109;-49
2023/04/26 01:05:20;;;;;;;4.03;1.98;;;21.10;31.10;;;;;;5049712;28;20029;-50
2023/04/26 01:07:46;;;;;;;2.35;1.50;;;21.10;31.10;;;;;;5057454;28;20082;-51
2023/04/26 01:10:12;;;;;;;2.10;1.40;;;21.10;31.30;;;;;;5049809;28;20139;-50
2023/04/26 01:12:38;;;;;;;2.70;1.20;;;21.10;31.30;;;;;;5050408;28;20440;-49
2023/04/26 01:15:05;;;;;;;3.85;1.50;;;21.10;31.30;;;;;;5050522;28;20397;-50
2023/04/26 01:17:31;;;;;;;3.60;1.40;;;21.10;31.30;;;;;;5050337;28;20069;-48
2023/04/26 01:19:57;;;;;;;3.25;1.42;;;21.10;31.30;;;;;;5031988;28;20366;-52
2023/04/26 01:22:22;;;;;;;2.58;1.15;;;21.10;31.30;;;;;;5046533;28;20045;-50
2023/04/26 01:24:50;;;;;;;2.92;1.20;;;21.10;31.20;;;;;;5048505;28;20175;-48
2023/04/26 01:27:16;;;;;;;4.13;1.73;;;21.10;31.30;;;;;;5068793;28;20083;-49
2023/04/26 01:29:42;;;;;;;4.15;1.55;;;21.10;31.20;;;;;;5049222;28;20029;-49
2023/04/26 01:32:08;;;;;;;2.65;1.25;;;21.10;31.20;;;;;;5050072;28;20025;-47
2023/04/26 01:34:34;;;;;;;2.35;1.25;;;21.00;31.20;;;;;;5049451;28;20352;-47
2023/04/26 01:37:00;;;;;;;3.50;1.45;;;21.10;31.20;;;;;;5048268;28;20450;-47
2023/04/26 01:39:27;;;;;;;3.05;1.45;;;21.10;31.20;;;;;;5038301;28;20083;-48
2023/04/26 01:41:53;;;;;;;3.67;1.25;;;21.00;31.20;;;;;;5056036;28;20329;-48
2023/04/26 01:44:19;;;;;;;3.30;1.38;;;21.00;31.20;;;;;;5048602;28;20059;-47
2023/04/26 01:46:45;;;;;;;3.42;1.30;;;21.00;31.20;;;;;;5047938;28;20053;-46
2023/04/26 01:49:11;;;;;;;2.60;1.30;;;21.00;31.30;;;;;;5035927;28;20054;-51
2023/04/26 01:51:37;;;;;;;3.13;1.42;;;21.00;31.40;;;;;;5029676;28;20453;-49
2023/04/26 01:54:06;;;;;;;3.28;1.50;;;21.00;31.40;;;;;;5035293;28;20116;-52
2023/04/26 01:56:35;;;;;;;3.85;1.30;;;21.00;31.40;;;;;;5047854;28;20071;-50
2023/04/26 01:59:01;;;;;;;2.88;1.23;;;21.00;31.30;;;;;;5048124;28;20037;-47
2023/04/26 02:01:30;;;;;;;2.42;1.25;;;21.00;31.40;;;;;;5042447;28;20214;-52
2023/04/26 02:03:55;;;;;;;4.95;1.40;;;21.00;31.30;;;;;;5029459;28;20207;-50
2023/04/26 02:06:21;;;;;;;2.67;1.10;;;21.00;31.30;;;;;;5050295;28;20139;-47
2023/04/26 02:08:48;;;;;;;4.07;1.50;;;21.00;31.30;;;;;;5060944;28;20120;-50
2023/04/26 02:11:13;;;;;;;3.50;1.30;;;21.00;31.30;;;;;;5051570;28;20036;-50
2023/04/26 02:13:40;;;;;;;3.38;1.40;;;21.00;31.30;;;;;;5053326;28;20037;-49
2023/04/26 02:16:06;;;;;;;3.75;1.25;;;21.00;31.30;;;;;;5050590;28;20144;-49
2023/04/26 02:18:33;;;;;;;3.30;1.35;;;21.00;31.30;;;;;;5066338;28;20052;-51
2023/04/26 02:20:59;;;;;;;2.40;1.50;;;21.00;31.30;;;;;;5061455;28;20437;-50
2023/04/26 02:23:25;;;;;;;1.85;1.20;;;20.90;31.30;;;;;;5051961;28;20079;-49
2023/04/26 02:25:51;;;;;;;2.85;1.33;;;21.00;31.30;;;;;;5050260;28;20304;-50
2023/04/26 02:28:16;;;;;;;4.10;1.35;;;20.90;31.30;;;;;;5052353;28;20029;-48
2023/04/26 02:30:43;;;;;;;4.43;1.48;;;21.00;31.40;;;;;;5053300;28;20051;-52
2023/04/26 02:33:09;;;;;;;2.33;1.30;;;20.90;31.30;;;;;;5050792;28;20093;-49
2023/04/26 02:35:36;;;;;;;3.67;1.52;;;20.90;31.40;;;;;;5051273;28;20053;-49
2023/04/26 02:38:03;;;;;;;3.53;1.35;;;20.90;31.40;;;;;;5051659;28;20075;-49
2023/04/26 02:40:29;;;;;;;3.28;1.35;;;20.90;31.40;;;;;;5051485;28;20068;-48
2023/04/26 02:42:56;;;;;;;3.00;1.58;;;20.90;31.30;;;;;;5068838;28;20065;-54
2023/04/26 02:45:22;;;;;;;3.45;1.52;;;20.90;31.40;;;;;;5045548;28;20104;-51
2023/04/26 02:47:48;;;;;;;2.15;1.45;;;20.90;31.40;;;;;;5050489;28;20060;-50
2023/04/26 02:50:14;;;;;;;3.60;1.40;;;20.90;31.40;;;;;;5051420;28;20111;-51
2023/04/26 02:52:40;;;;;;;2.95;1.20;;;20.90;31.40;;;;;;5038263;28;20029;-52
2023/04/26 02:55:06;;;;;;;3.63;1.42;;;20.90;31.40;;;;;;5048066;28;20060;-52
2023/04/26 02:57:32;;;;;;;3.78;1.67;;;20.90;31.40;;;;;;5061306;28;20401;-52
2023/04/26 02:59:58;;;;;;;2.33;1.13;;;20.80;31.30;;;;;;5063474;28;20129;-53
2023/04/26 03:02:25;;;;;;;3.15;1.45;;;20.80;31.30;;;;;;5043991;28;20035;-54
2023/04/26 03:04:50;;;;;;;2.20;1.20;;;20.80;31.30;;;;;;5063323;28;20033;-54
2023/04/26 03:07:16;;;;;;;3.05;1.20;;;20.80;31.40;;;;;;5040475;28;20099;-54
2023/04/26 03:09:42;;;;;;;2.63;1.30;;;20.80;31.40;;;;;;5061857;28;20025;-54
2023/04/26 03:12:08;;;;;;;2.80;1.20;;;20.80;31.40;;;;;;5070928;28;20404;-54
2023/04/26 03:14:36;;;;;;;2.83;1.38;;;20.80;31.40;;;;;;5053688;28;20108;-54
2023/04/26 03:17:02;;;;;;;3.15;1.30;;;20.80;31.40;;;;;;5051114;28;20076;-52
2023/04/26 03:19:29;;;;;;;3.50;1.30;;;20.80;31.40;;;;;;5071142;28;20413;-52
2023/04/26 03:21:56;;;;;;;3.60;1.50;;;20.80;31.40;;;;;;5060113;28;20428;-48
2023/04/26 03:24:22;;;;;;;3.72;1.30;;;20.80;31.40;;;;;;5030554;28;20029;-53
2023/04/26 03:26:48;;;;;;;1.75;0.95;;;20.80;31.40;;;;;;5045355;28;20075;-52
2023/04/26 03:29:15;;;;;;;2.60;1.42;;;20.70;31.40;;;;;;5050451;28;20061;-53
2023/04/26 03:31:41;;;;;;;1.63;1.00;;;20.80;31.40;;;;;;5049242;28;20086;-50
2023/04/26 03:34:08;;;;;;;4.40;1.90;;;20.80;31.40;;;;;;5050647;28;20203;-49
2023/04/26 03:36:34;;;;;;;3.55;1.27;;;20.80;31.50;;;;;;5049895;28;20500;-51
2023/04/26 03:39:01;;;;;;;2.75;1.77;;;20.70;31.50;;;;;;5050390;28;20024;-49
2023/04/26 03:41:27;;;;;;;2.40;1.20;;;20.80;31.50;;;;;;5049624;28;20128;-52
2023/04/26 03:43:55;;;;;;;3.42;1.63;;;20.80;31.50;;;;;;5049813;28;20086;-47
2023/04/26 03:46:20;;;;;;;2.90;1.38;;;20.70;31.50;;;;;;5051084;28;20077;-52
2023/04/26 03:48:47;;;;;;;2.97;1.23;;;20.70;31.60;;;;;;5050177;28;20481;-53
2023/04/26 03:51:13;;;;;;;2.58;1.48;;;20.80;31.70;;;;;;5049703;28;20067;-48
2023/04/26 03:53:40;;;;;;;3.67;1.25;;;20.70;31.70;;;;;;5048975;28;20090;-50
2023/04/26 03:56:07;;;;;;;3.05;1.52;;;20.70;31.70;;;;;;5033573;28;20111;-52
2023/04/26 03:58:33;;;;;;;2.72;1.50;;;20.70;31.70;;;;;;5064330;28;20056;-50
2023/04/26 04:00:59;;;;;;;2.05;1.20;;;20.70;31.80;;;;;;5058088;28;20172;-50
2023/04/26 04:03:25;;;;;;;2.25;1.30;;;20.70;31.80;;;;;;5048637;28;20429;-49
2023/04/26 04:05:51;;;;;;;2.05;1.40;;;20.70;31.80;;;;;;5050203;28;20071;-52
2023/04/26 04:08:17;;;;;;;2.83;1.48;;;20.70;31.80;;;;;;5061044;28;20230;-51
2023/04/26 04:10:44;;;;;;;2.30;1.45;;;20.70;31.90;;;;;;5054279;28;20025;-50
2023/04/26 04:13:10;;;;;;;2.30;1.50;;;20.70;31.90;;;;;;5037197;28;20056;-51
2023/04/26 04:15:36;;;;;;;5.00;1.55;;;20.70;31.90;;;;;;5049522;28;20049;-49
2023/04/26 04:18:03;;;;;;;3.17;1.80;;;20.70;32.00;;;;;;5058720;28;20021;-48
2023/04/26 04:20:29;;;;;;;3.65;1.48;;;20.70;32.00;;;;;;5070568;28;20537;-48
2023/04/26 04:22:57;;;;;;;2.45;1.50;;;20.60;32.00;;;;;;5052721;28;20033;-52
2023/04/26 04:25:24;;;;;;;1.83;1.35;;;20.60;31.90;;;;;;5050913;28;20104;-51
2023/04/26 04:27:52;;;;;;;3.88;2.05;;;20.70;32.00;;;;;;5048781;28;20396;-52
2023/04/26 04:30:18;;;;;;;3.75;1.88;;;20.70;32.00;;;;;;5049533;28;20024;-50
2023/04/26 04:32:45;;;;;;;2.47;1.27;;;20.60;31.90;;;;;;5046900;28;20112;-52
2023/04/26 04:35:13;;;;;;;3.97;1.80;;;20.60;32.00;;;;;;5029345;28;20030;-51
2023/04/26 04:37:39;;;;;;;2.92;1.60;;;20.60;32.00;;;;;;5041797;28;20110;-50
2023/04/26 04:40:09;;;;;;;3.83;1.52;;;20.60;32.00;;;;;;5049386;28;20025;-54
2023/04/26 04:42:34;;;;;;;2.47;1.60;;;20.60;32.00;;;;;;5049730;28;20034;-50
2023/04/26 04:45:04;;;;;;;2.30;1.60;;;20.60;31.90;;;;;;5068995;28;20078;-53
2023/04/26 04:47:32;;;;;;;3.50;1.70;;;20.60;32.00;;;;;;5069259;28;20055;-51
2023/04/26 04:49:59;;;;;;;2.35;1.55;;;20.60;32.00;;;;;;5057457;28;20032;-54
2023/04/26 04:52:25;;;;;;;3.67;1.83;;;20.60;32.00;;;;;;5038450;28;20050;-50
2023/04/26 04:54:52;;;;;;;2.60;1.33;;;20.60;32.00;;;;;;5029184;28;20096;-54
2023/04/26 04:57:17;;;;;;;2.97;1.60;;;20.60;32.00;;;;;;5065509;28;20369;-52
2023/04/26 04:59:45;;;;;;;2.40;1.27;;;20.60;32.00;;;;;;5030345;28;20045;-51
2023/04/26 05:02:11;;;;;;;2.90;1.45;;;20.60;32.00;;;;;;5034143;28;20130;-50
2023/04/26 05:04:37;;;;;;;2.63;1.30;;;20.60;31.90;;;;;;5048514;28;20123;-50
2023/04/26 05:07:05;;;;;;;2.92;1.35;;;20.60;31.90;;;;;;5032977;28;20054;-56
2023/04/26 05:09:31;;;;;;;3.72;1.70;;;20.60;31.90;;;;;;5029697;28;20069;-53
2023/04/26 05:11:57;;;;;;;4.22;1.80;;;20.60;31.90;;;;;;5034344;28;20094;-50
2023/04/26 05:14:22;;;;;;;5.20;1.90;;;20.60;32.00;;;;;;5050000;28;20138;-50
2023/04/26 05:16:48;;;;;;;4.38;1.58;;;20.60;31.90;;;;;;5048049;28;20097;-50
2023/04/26 05:19:14;;;;;;;4.68;2.00;;;20.60;31.90;;;;;;5048660;28;20106;-51
2023/04/26 05:21:40;;;;;;;3.72;1.80;;;20.60;31.90;;;;;;5049139;28;20059;-48
2023/04/26 05:24:06;;;;;;;4.97;2.05;;;20.60;32.10;;;;;;5050584;28;20035;-51
2023/04/26 05:26:34;;;;;;;6.22;2.38;;;20.60;32.10;;;;;;5047926;28;20041;-51
2023/04/26 05:29:18;;;;;;;4.60;2.17;;;20.50;32.00;;;;;;5070403;28;20142;-51
2023/04/26 05:32:13;;;;;;;5.75;2.70;;;20.60;32.10;;;;;;5044719;28;20041;-51
2023/04/26 05:34:40;;;;;;;5.22;3.08;;;20.60;32.20;;;;;;5050388;28;20351;-48
2023/04/26 05:37:08;;;;;;;6.93;2.80;;;20.50;32.20;;;;;;5048748;28;20089;-50
2023/04/26 05:39:34;;;;;;;6.75;3.30;;;20.50;32.20;;;;;;5049742;28;20035;-50
2023/04/26 05:42:02;;;;;;;6.75;4.03;;;20.60;32.30;;;;;;5046930;28;20033;-50
2023/04/26 05:44:29;;;;;;;7.10;3.92;;;20.60;32.30;;;;;;5032774;28;20163;-51
2023/04/26 05:46:55;;;;;;;6.15;3.97;;;20.50;32.30;;;;;;5055935;28;20096;-56
2023/04/26 05:49:21;;;;;;;6.68;4.07;;;20.60;32.50;;;;;;5061328;28;20061;-54
2023/04/26 05:51:47;;;;;;;6.25;4.15;;;20.60;32.80;;;;;;5062416;28;20089;-50
2023/04/26 05:54:13;;;;;;;8.77;4.82;;;20.60;33.10;;;;;;5052705;28;20317;-47
2023/04/26 05:56:39;;;;;;;7.75;4.50;;;20.60;33.00;;;;;;5052755;28;20065;-47
2023/04/26 05:59:05;;;;;;;8.68;5.13;;;20.60;33.00;;;;;;5052684;28;20028;-49
2023/04/26 06:01:32;;;;;;;11.05;4.97;;;20.60;32.90;;;;;;5052120;28;20447;-48
2023/04/26 06:03:58;;;;;;;7.57;5.03;;;20.60;33.50;;;;;;5060074;28;20096;-50
2023/04/26 06:06:25;;;;;;;8.60;5.35;;;20.60;32.90;;;;;;5069936;28;20460;-48
2023/04/26 06:08:51;;;;;;;7.47;4.78;;;20.60;32.90;;;;;;5068429;28;20036;-51
2023/04/26 06:11:18;;;;;;;8.32;5.53;;;20.60;32.80;;;;;;5070919;28;20025;-51
2023/04/26 06:13:43;;;;;;;8.45;5.10;;;20.70;32.80;;;;;;5052046;28;20025;-48
2023/04/26 06:16:10;;;;;;;7.95;5.25;;;20.60;32.70;;;;;;5051954;28;20060;-54
2023/04/26 06:18:35;;;;;;;10.73;5.45;;;20.70;32.80;;;;;;5066207;28;20029;-51
2023/04/26 06:21:02;;;;;;;9.98;5.25;;;20.70;32.80;;;;;;5073550;28;20029;-54
2023/04/26 06:23:27;;;;;;;6.85;4.75;;;20.70;32.80;;;;;;5067759;28;20175;-50
2023/04/26 06:25:53;;;;;;;8.88;4.65;;;20.70;32.70;;;;;;5053027;28;20189;-52
2023/04/26 06:28:19;;;;;;;7.90;5.30;;;20.70;32.70;;;;;;5052085;28;20091;-50
2023/04/26 06:30:45;;;;;;;9.35;5.03;;;20.70;32.70;;;;;;5035528;28;20029;-50
2023/04/26 06:33:11;;;;;;;8.57;4.95;;;20.70;32.70;;;;;;5056303;28;20125;-51
2023/04/26 06:35:40;;;;;;;7.57;5.32;;;20.70;32.70;;;;;;5051240;28;20092;-48
2023/04/26 06:38:07;;;;;;;8.18;5.13;;;20.70;32.60;;;;;;5051508;28;20337;-48
2023/04/26 06:40:35;;;;;;;8.00;5.18;;;20.80;32.70;;;;;;5053415;28;20040;-49
2023/04/26 06:43:02;;;;;;;11.35;4.97;;;20.70;32.60;;;;;;5058643;28;20024;-48
2023/04/26 06:45:31;;;;;;;8.13;4.82;;;20.70;32.60;;;;;;5072984;28;20112;-51
2023/04/26 06:47:59;;;;;;;7.38;4.80;;;20.70;32.50;;;;;;5071575;28;20066;-51
2023/04/26 06:50:26;;;;;;;8.05;5.72;;;20.80;32.50;;;;;;5052597;28;20055;-47
2023/04/26 06:52:52;;;;;;;10.02;6.70;;;20.80;32.50;;;;;;5048062;28;20063;-51
2023/04/26 06:55:18;;;;;;;10.27;6.32;;;20.70;32.50;;;;;;5056766;28;20067;-53
2023/04/26 06:57:44;;;;;;;13.15;7.75;;;20.80;32.60;;;;;;5048649;28;20111;-49
2023/04/26 07:00:13;;;;;;;10.77;7.53;;;20.80;32.60;;;;;;5048672;28;20183;-52
2023/04/26 07:02:39;;;;;;;11.68;7.88;;;20.80;32.70;;;;;;5042879;28;20144;-53
2023/04/26 07:05:05;;;;;;;12.32;8.95;;;20.70;32.70;;;;;;5045317;28;20135;-51
2023/04/26 07:07:31;;;;;;;11.63;8.40;;;20.80;32.70;;;;;;5053801;28;20321;-49
2023/04/26 07:09:57;;;;;;;11.35;8.10;;;20.70;32.70;;;;;;5055906;28;20361;-52
2023/04/26 07:12:22;;;;;;;10.38;7.65;;;20.80;32.70;;;;;;5051137;28;20088;-49
2023/04/26 07:14:48;;;;;;;11.32;8.30;;;20.80;32.70;;;;;;5047088;28;20066;-51
2023/04/26 07:17:14;;;;;;;12.27;8.13;;;20.80;32.70;;;;;;5048662;28;20021;-51
2023/04/26 07:19:40;;;;;;;9.07;6.60;;;20.80;32.70;;;;;;5054667;28;20436;-51
2023/04/26 07:22:12;;;;;;;10.13;7.20;;;20.80;32.70;;;;;;5052611;28;20119;-51
2023/04/26 07:24:38;;;;;;;10.77;7.30;;;20.80;32.60;;;;;;5034219;28;20041;-52
2023/04/26 07:27:03;;;;;;;9.88;6.70;;;20.80;32.80;;;;;;5063654;28;20033;-46
2023/04/26 07:29:29;;;;;;;10.27;6.70;;;20.90;33.00;;;;;;5055565;28;20033;-51
2023/04/26 07:31:56;;;;;;;8.38;6.10;;;20.90;33.00;;;;;;5054617;28;20021;-50
2023/04/26 07:34:21;;;;;;;9.10;6.32;;;20.90;32.80;;;;;;5051144;28;20037;-55
2023/04/26 07:36:47;;;;;;;9.52;6.70;;;20.90;32.70;;;;;;5051947;28;20078;-47
2023/04/26 07:39:14;;;;;;;9.15;5.72;;;20.90;32.50;;;;;;5031322;28;20025;-51
2023/04/26 07:41:40;;;;;;;8.80;6.30;;;20.90;32.40;;;;;;5031585;28;20036;-49
2023/04/26 07:44:06;;;;;;;10.55;6.97;;;20.90;32.40;;;;;;5031500;28;20041;-54
2023/04/26 07:46:33;;;;;;;11.40;7.47;;;20.90;32.50;;;;;;5034230;28;20060;-54
2023/04/26 07:48:59;;;;;;;13.30;9.07;;;20.90;32.70;;;;;;5048841;28;20069;-54
2023/04/26 07:51:26;;;;;;;14.68;10.27;;;20.90;32.80;;;;;;5051466;28;20095;-54
2023/04/26 07:53:52;;;;;;;15.77;11.07;;;20.90;32.80;;;;;;5051994;28;20025;-52
2023/04/26 07:56:17;;;;;;;17.90;11.60;;;20.90;33.00;;;;;;5051129;28;20390;-52
2023/04/26 07:58:43;;;;;;;16.92;11.80;;;21.00;33.10;;;;;;5052535;28;20421;-50
2023/04/26 08:01:12;;;;;;;14.10;10.70;;;21.00;33.10;;;;;;5039096;28;20127;-50
2023/04/26 08:03:38;;;;;;;14.88;11.77;;;21.00;32.80;;;;;;5047988;28;20093;-53
2023/04/26 08:06:04;;;;;;;16.02;12.40;;;21.00;32.60;;;;;;5031688;28;20448;-55
2023/04/26 08:08:32;;;;;;;15.05;11.70;;;21.00;32.50;;;;;;5059183;28;20110;-53
2023/04/26 08:10:58;;;;;;;13.45;10.73;;;21.00;32.30;;;;;;5070168;28;20407;-52
2023/04/26 08:13:23;;;;;;;15.20;10.60;;;21.00;32.10;;;;;;5050872;28;20052;-54
2023/04/26 08:15:49;;;;;;;13.52;9.27;;;21.00;31.90;;;;;;5049999;28;20468;-53
2023/04/26 08:18:15;;;;;;;11.63;9.10;;;21.00;31.70;;;;;;5054351;28;20420;-52
2023/04/26 08:20:41;;;;;;;12.38;8.43;;;21.00;31.60;;;;;;5051038;28;20421;-53
2023/04/26 08:23:07;;;;;;;11.80;8.52;;;21.00;31.40;;;;;;5051267;28;20037;-50
2023/04/26 08:25:33;;;;;;;11.23;8.07;;;21.00;31.30;;;;;;5051021;28;20055;-55
2023/04/26 08:28:00;;;;;;;10.95;8.25;;;21.00;31.20;;;;;;5050596;28;20166;-48
2023/04/26 08:30:26;;;;;;;10.45;7.75;;;21.00;31.10;;;;;;5050754;28;20028;-51
2023/04/26 08:32:52;;;;;;;11.27;7.75;;;21.00;31.00;;;;;;5048756;28;20108;-51
2023/04/26 08:35:18;;;;;;;11.25;7.97;;;21.00;30.90;;;;;;5050752;28;20453;-50
2023/04/26 08:37:44;;;;;;;9.57;7.20;;;21.00;30.90;;;;;;5050902;28;20024;-53
2023/04/26 08:40:10;;;;;;;9.20;6.85;;;21.00;30.80;;;;;;5050404;28;20139;-54
2023/04/26 08:42:43;;;;;;;9.13;6.70;;;21.10;30.80;;;;;;5054520;28;20040;-53
2023/04/26 08:45:12;;;;;;;8.82;6.68;;;21.00;30.60;;;;;;5070862;28;20131;-51
2023/04/26 08:47:50;;;;;;;8.32;6.13;;;21.10;30.60;;;;;;5070330;28;20068;-52
2023/04/26 08:50:19;;;;;;;11.30;6.80;;;21.10;30.40;;;;;;5053978;28;20321;-52
2023/04/26 08:52:49;;;;;;;7.65;6.25;;;21.10;30.40;;;;;;5050040;28;20094;-51
2023/04/26 08:55:15;;;;;;;7.47;6.65;;;21.10;30.30;;;;;;5050323;28;20025;-50
2023/04/26 08:57:48;;;;;;;10.20;6.10;;;21.10;30.30;;;;;;5050080;28;20028;-51
2023/04/26 09:00:16;;;;;;;9.10;6.43;;;21.10;30.20;;;;;;5049238;28;20033;-54
2023/04/26 09:02:51;;;;;;;8.43;5.78;;;21.10;30.20;;;;;;5041255;28;20029;-53
2023/04/26 09:05:22;;;;;;;8.35;6.50;;;21.10;30.20;;;;;;5030166;28;20451;-49
2023/04/26 09:07:49;;;;;;;8.23;6.43;;;21.10;30.80;;;;;;5040217;28;20040;-51
2023/04/26 09:10:20;;;;;;;7.88;5.78;;;21.10;30.10;;;;;;5049112;28;20413;-53
2023/04/26 09:12:46;;;;;;;9.93;6.30;;;21.10;30.10;;;;;;5047842;28;20080;-52
2023/04/26 09:15:14;;;;;;;9.38;6.32;;;21.10;30.10;;;;;;5036814;28;20294;-49
2023/04/26 09:17:40;;;;;;;8.43;6.75;;;21.10;30.10;;;;;;5043330;28;20171;-48
2023/04/26 09:20:20;;;;;;;9.65;7.70;;;21.10;30.20;;;;;;5056790;28;20052;-52
2023/04/26 09:22:46;;;;;;;11.80;8.68;;;21.10;30.20;;;;;;5055845;28;20076;-52
2023/04/26 09:25:14;;;;;;;12.95;8.00;;;21.10;30.30;;;;;;5056908;28;20059;-51
2023/04/26 09:27:45;;;;;;;11.65;8.52;;;21.10;30.20;;;;;;5056294;28;20105;-48
2023/04/26 09:30:14;;;;;;;10.20;7.53;;;21.10;30.10;;;;;;5036911;28;20090;-54
2023/04/26 09:32:53;;;;;;;10.65;7.82;;;21.10;30.00;;;;;;5045512;28;20115;-52
2023/04/26 09:35:35;;;;;;;10.63;7.43;;;21.10;30.00;;;;;;5052312;28;20135;-50
2023/04/26 09:38:14;;;;;;;9.90;7.35;;;21.10;30.00;;;;;;5061563;28;20321;-48
2023/04/26 09:40:49;;;;;;;11.00;7.60;;;21.10;30.00;;;;;;5056289;28;20067;-49
2023/04/26 09:43:15;;;;;;;;;;;21.10;30.00;;;;;;5057269;28;20021;-52
2023/04/26 09:45:52;;;;;;;9.82;7.15;;;21.10;30.00;;;;;;5055975;28;19947;-53
2023/04/26 09:48:27;;;;;;;11.02;7.22;;;21.10;29.90;;;;;;5036899;28;20102;-50
2023/04/26 09:50:56;;;;;;;9.48;7.30;;;21.10;29.90;;;;;;5055368;28;20356;-46
2023/04/26 09:53:26;;;;;;;11.07;7.70;;;21.10;29.90;;;;;;5058466;28;20321;-51
2023/04/26 09:55:53;;;;;;;9.70;7.18;;;21.10;29.90;;;;;;5054236;28;20097;-54
2023/04/26 09:58:19;;;;;;;11.68;8.38;;;21.10;29.80;;;;;;5065235;28;20440;-50
2023/04/26 10:00:50;;;;;;;12.52;9.30;;;21.10;29.90;;;;;;5069825;28;20021;-53
2023/04/26 10:03:21;;;;;;;13.68;9.07;;;21.10;30.00;;;;;;5051255;28;20139;-52
2023/04/26 10:05:47;;;;;;;17.02;10.68;;;21.10;30.00;;;;;;5053956;28;20213;-52
2023/04/26 10:08:13;;;;;;;13.32;9.73;;;21.10;30.00;;;;;;5057767;28;20339;-51
2023/04/26 10:10:40;;;;;;;13.35;9.60;;;21.10;30.00;;;;;;5076461;28;20448;-53
2023/04/26 10:13:07;;;;;;;16.17;9.70;;;21.10;30.00;;;;;;5065685;28;20109;-51
2023/04/26 10:15:34;;;;;;;10.70;8.27;;;21.10;30.00;;;;;;5052972;28;20116;-53
2023/04/26 10:18:00;;;;;;;13.00;8.73;;;21.10;30.10;;;;;;5055275;28;20396;-51
2023/04/26 10:20:27;;;;;;;11.35;8.05;;;21.10;30.10;;;;;;5053663;28;20033;-52
2023/04/26 10:23:00;;;;;;;10.40;7.95;;;21.10;30.10;;;;;;5053169;28;20099;-50
2023/04/26 10:25:42;;;;;;;12.95;8.38;;;21.20;30.20;;;;;;5074818;28;20106;-53
2023/04/26 10:28:08;;;;;;;10.98;7.78;;;21.20;30.20;;;;;;5053222;28;20325;-48
2023/04/26 10:30:54;;;;;;;12.48;8.45;;;21.10;30.10;;;;;;5052469;28;20025;-51
2023/04/26 10:33:20;;;;;;;14.55;9.63;;;21.20;30.00;;;;;;5052404;28;20107;-51
2023/04/26 10:36:06;;;;;;;15.57;9.98;;;21.20;30.10;;;;;;5052202;28;20059;-55
2023/04/26 10:38:34;;;;;;;18.25;11.07;;;21.20;30.10;;;;;;5053241;28;20112;-51
2023/04/26 10:41:36;;;;;;;15.57;11.25;;;21.10;30.10;;;;;;5053026;28;20029;-52
2023/04/26 10:44:39;;;;;;;14.68;11.05;;;21.20;30.20;;;;;;5056779;28;20111;-51
2023/04/26 10:47:20;;;;;;;17.65;12.02;;;21.20;30.20;;;;;;5044161;28;20056;-58
2023/04/26 10:49:47;;;;;;;19.92;13.77;;;21.20;30.20;;;;;;5041727;28;20112;-55
2023/04/26 10:52:19;;;;;;;25.20;14.77;;;21.20;30.30;;;;;;5069287;28;20127;-55
2023/04/26 10:54:57;;;;;;;21.67;15.75;;;21.20;30.60;;;;;;5068531;28;20025;-51
2023/04/26 10:57:46;;;;;;;25.48;16.92;;;21.20;30.90;;;;;;5034859;28;20044;-50
2023/04/26 11:00:16;;;;;;;29.25;17.50;;;21.20;31.10;;;;;;5032755;28;20037;-53
2023/04/26 11:02:51;;;;;;;24.20;16.95;;;21.20;31.30;;;;;;5048593;28;20174;-51
2023/04/26 11:05:52;;;;;;;28.98;17.70;;;21.20;31.40;;;;;;5065868;28;20346;-48
2023/04/26 11:08:29;;;;;;;27.45;18.00;;;21.20;31.40;;;;;;5057248;28;20059;-49
2023/04/26 11:11:09;;;;;;;27.90;19.02;;;21.20;31.50;;;;;;5052174;28;20416;-49
2023/04/26 11:13:38;;;;;;;24.52;18.27;;;21.20;31.60;;;;;;5041620;28;20302;-56
2023/04/26 11:16:14;;;;;;;31.73;20.90;;;21.30;31.70;;;;;;5044402;28;20021;-58
2023/04/26 11:18:43;;;;;;;26.02;19.45;;;21.20;31.70;;;;;;5066100;28;20043;-59
2023/04/26 11:21:11;;;;;;;28.38;20.25;;;21.30;31.80;;;;;;5070838;28;20036;-47
2023/04/26 11:23:37;;;;;;;29.05;20.10;;;21.30;31.90;;;;;;5071959;28;20047;-55
2023/04/26 11:26:05;;;;;;;32.78;21.45;;;21.30;32.00;;;;;;5072091;28;20124;-50
2023/04/26 11:28:32;;;;;;;31.35;21.50;;;21.30;31.90;;;;;;5052649;28;20112;-52
2023/04/26 11:30:59;;;;;;;31.35;20.65;;;21.30;32.00;;;;;;5036752;28;20040;-55
2023/04/26 11:33:25;;;;;;;34.92;21.92;;;21.30;32.00;;;;;;5047521;28;20096;-57
2023/04/26 11:35:53;;;;;;;27.92;21.45;;;21.30;32.00;;;;;;5051153;28;20033;-54
2023/04/26 11:38:26;;;;;;;27.42;20.52;;;21.30;32.00;;;;;;5051124;28;20167;-55
2023/04/26 11:41:02;;;;;;;25.85;19.77;;;21.30;31.80;;;;;;5051821;28;20148;-58
2023/04/26 11:43:38;;;;;;;27.90;20.65;;;21.30;31.70;;;;;;5057488;28;20051;-57
2023/04/26 11:46:05;;;;;;;29.92;20.83;;;21.30;31.70;;;;;;5051502;28;20088;-56
2023/04/26 11:48:33;;;;;;;30.40;22.52;;;21.40;31.80;;;;;;5033151;28;20453;-56
2023/04/26 11:51:01;;;;;;;30.10;22.00;;;21.40;32.00;;;;;;5031756;28;20479;-56
2023/04/26 11:53:41;;;;;;;30.20;22.25;;;21.40;32.10;;;;;;5046996;28;20033;-54
2023/04/26 11:56:15;;;;;;;32.42;21.85;;;21.40;32.30;;;;;;5051663;28;20305;-55
2023/04/26 11:58:44;;;;;;;28.05;19.10;;;21.40;32.40;;;;;;5048849;28;20041;-47
2023/04/26 12:01:10;;;;;;;26.52;18.70;;;21.40;32.40;;;;;;5051148;28;20028;-52
2023/04/26 12:03:36;;;;;;;46.13;21.92;;;21.40;32.80;;;;;;5036509;28;20033;-53
2023/04/26 12:06:05;;;;;;;20.35;13.25;;;21.40;32.30;;;;;;5054537;28;20028;-63
2023/04/26 12:08:32;;;;;;;18.90;11.63;;;21.40;32.40;;;;;;5049276;28;20044;-61
2023/04/26 12:11:00;;;;;;;16.55;12.27;;;21.40;32.40;;;;;;5047861;28;20055;-63
2023/04/26 12:13:26;;;;;;;17.52;12.38;;;21.40;32.90;;;;;;5045912;28;20048;-64
2023/04/26 12:15:53;;;;;;;19.05;11.70;;;21.40;32.20;;;;;;5049156;28;20094;-63
2023/04/26 12:18:18;;;;;;;14.93;11.20;;;21.50;32.30;;;;;;5040872;28;20036;-58
2023/04/26 12:20:47;;;;;;;13.63;10.25;;;21.50;32.20;;;;;;5036570;28;20098;-59
2023/04/26 12:23:15;;;;;;;14.23;9.75;;;21.50;32.00;;;;;;5056781;28;20029;-63
2023/04/26 12:25:52;;;;;;;12.10;8.90;;;21.50;31.90;;;;;;5050404;28;20427;-60
2023/04/26 12:28:18;;;;;;;14.00;10.20;;;21.50;31.90;;;;;;5051106;28;20460;-62
2023/04/26 12:30:44;;;;;;;13.00;9.23;;;21.50;31.90;;;;;;5050758;28;20044;-61
2023/04/26 12:33:10;;;;;;;11.20;8.90;;;21.50;31.90;;;;;;5051554;28;20032;-61
2023/04/26 12:35:35;;;;;;;11.63;8.48;;;21.50;31.80;;;;;;5050584;28;20069;-61
2023/04/26 12:38:01;;;;;;;10.90;8.45;;;21.50;31.70;;;;;;5051451;28;20078;-63
2023/04/26 12:40:28;;;;;;;12.32;7.97;;;21.50;31.70;;;;;;5041728;28;20045;-63
2023/04/26 12:42:54;;;;;;;9.52;7.28;;;21.50;31.60;;;;;;5049053;28;20408;-62
2023/04/26 12:45:22;;;;;;;12.52;8.30;;;21.50;31.50;;;;;;5040361;28;20696;-65